sensor_id;sensor_type;location;lat;lon;timestamp;P1;durP1;ratioP1;P2;durP2;ratioP2
11473;SDS011;5793;52.238;13.438;2023-09-08T00:01:51;9.05;;;7.57;;
11473;SDS011;5793;52.238;13.438;2023-09-08T00:04:21;8.95;;;8.05;;
11473;SDS011;5793;52.238;13.438;2023-09-08T00:06:50;8.98;;;8.07;;
11473;SDS011;5793;52.238;13.438;2023-09-08T00:09:18;10.55;;;7.93;;
11473;SDS011;5793;52.238;13.438;2023-09-08T00:11:45;9.10;;;8.07;;
11473;SDS011;5793;52.238;13.438;2023-09-08T00:14:13;9.00;;;8.10;;
11473;SDS011;5793;52.238;13.438;2023-09-08T00:16:41;9.40;;;7.97;;
11473;SDS011;5793;52.238;13.438;2023-09-08T00:19:09;12.60;;;8.27;;
11473;SDS011;5793;52.238;13.438;2023-09-08T00:21:39;11.07;;;8.32;;
11473;SDS011;5793;52.238;13.438;2023-09-08T00:24:09;11.70;;;8.50;;
11473;SDS011;5793;52.238;13.438;2023-09-08T00:26:38;9.60;;;8.45;;
11473;SDS011;5793;52.238;13.438;2023-09-08T00:29:06;13.50;;;8.93;;
11473;SDS011;5793;52.238;13.438;2023-09-08T00:31:34;9.43;;;8.45;;
11473;SDS011;5793;52.238;13.438;2023-09-08T00:34:02;10.73;;;8.45;;
11473;SDS011;5793;52.238;13.438;2023-09-08T00:36:29;11.38;;;8.27;;
11473;SDS011;5793;52.238;13.438;2023-09-08T00:38:59;10.38;;;8.93;;
11473;SDS011;5793;52.238;13.438;2023-09-08T00:41:26;9.90;;;8.90;;
11473;SDS011;5793;52.238;13.438;2023-09-08T00:43:54;8.65;;;7.75;;
11473;SDS011;5793;52.238;13.438;2023-09-08T00:46:22;10.63;;;9.10;;
11473;SDS011;5793;52.238;13.438;2023-09-08T00:48:51;9.70;;;8.73;;
11473;SDS011;5793;52.238;13.438;2023-09-08T00:51:19;9.85;;;8.77;;
11473;SDS011;5793;52.238;13.438;2023-09-08T00:53:48;9.27;;;8.38;;
11473;SDS011;5793;52.238;13.438;2023-09-08T00:56:18;9.95;;;8.95;;
11473;SDS011;5793;52.238;13.438;2023-09-08T00:58:46;9.65;;;8.15;;
11473;SDS011;5793;52.238;13.438;2023-09-08T01:01:14;11.27;;;8.65;;
11473;SDS011;5793;52.238;13.438;2023-09-08T01:03:43;9.52;;;8.50;;
11473;SDS011;5793;52.238;13.438;2023-09-08T01:06:11;9.48;;;8.55;;
11473;SDS011;5793;52.238;13.438;2023-09-08T01:08:40;11.57;;;8.80;;
11473;SDS011;5793;52.238;13.438;2023-09-08T01:11:10;11.50;;;8.88;;
11473;SDS011;5793;52.238;13.438;2023-09-08T01:13:39;10.65;;;8.95;;
11473;SDS011;5793;52.238;13.438;2023-09-08T01:16:07;10.20;;;8.20;;
11473;SDS011;5793;52.238;13.438;2023-09-08T01:18:35;10.20;;;9.10;;
11473;SDS011;5793;52.238;13.438;2023-09-08T01:21:06;10.88;;;8.75;;
11473;SDS011;5793;52.238;13.438;2023-09-08T01:23:56;10.23;;;9.13;;
11473;SDS011;5793;52.238;13.438;2023-09-08T01:26:35;10.48;;;8.88;;
11473;SDS011;5793;52.238;13.438;2023-09-08T01:29:07;10.68;;;9.60;;
11473;SDS011;5793;52.238;13.438;2023-09-08T01:31:37;11.85;;;9.25;;
11473;SDS011;5793;52.238;13.438;2023-09-08T01:34:05;13.23;;;9.43;;
11473;SDS011;5793;52.238;13.438;2023-09-08T01:36:35;12.60;;;9.32;;
11473;SDS011;5793;52.238;13.438;2023-09-08T01:39:03;11.05;;;9.63;;
11473;SDS011;5793;52.238;13.438;2023-09-08T01:41:31;11.45;;;9.02;;
11473;SDS011;5793;52.238;13.438;2023-09-08T01:44:01;10.48;;;9.43;;
11473;SDS011;5793;52.238;13.438;2023-09-08T01:46:34;13.45;;;10.88;;
11473;SDS011;5793;52.238;13.438;2023-09-08T01:49:02;9.80;;;8.80;;
11473;SDS011;5793;52.238;13.438;2023-09-08T01:51:30;11.68;;;9.07;;
11473;SDS011;5793;52.238;13.438;2023-09-08T01:53:58;11.30;;;9.75;;
11473;SDS011;5793;52.238;13.438;2023-09-08T01:56:26;13.18;;;9.10;;
11473;SDS011;5793;52.238;13.438;2023-09-08T01:58:53;9.75;;;8.77;;
11473;SDS011;5793;52.238;13.438;2023-09-08T02:01:22;9.98;;;8.98;;
11473;SDS011;5793;52.238;13.438;2023-09-08T02:03:50;12.88;;;9.32;;
11473;SDS011;5793;52.238;13.438;2023-09-08T02:06:18;10.25;;;9.15;;
11473;SDS011;5793;52.238;13.438;2023-09-08T02:08:46;11.00;;;8.88;;
11473;SDS011;5793;52.238;13.438;2023-09-08T02:11:14;10.93;;;9.55;;
11473;SDS011;5793;52.238;13.438;2023-09-08T02:13:41;10.32;;;9.20;;
11473;SDS011;5793;52.238;13.438;2023-09-08T02:16:12;11.35;;;9.63;;
11473;SDS011;5793;52.238;13.438;2023-09-08T02:18:42;10.40;;;8.95;;
11473;SDS011;5793;52.238;13.438;2023-09-08T02:21:10;11.30;;;9.15;;
11473;SDS011;5793;52.238;13.438;2023-09-08T02:23:38;12.48;;;9.60;;
11473;SDS011;5793;52.238;13.438;2023-09-08T02:26:05;12.88;;;9.57;;
11473;SDS011;5793;52.238;13.438;2023-09-08T02:28:33;11.20;;;9.88;;
11473;SDS011;5793;52.238;13.438;2023-09-08T02:31:01;11.10;;;9.95;;
11473;SDS011;5793;52.238;13.438;2023-09-08T02:33:29;12.95;;;9.13;;
11473;SDS011;5793;52.238;13.438;2023-09-08T02:36:02;10.45;;;8.75;;
11473;SDS011;5793;52.238;13.438;2023-09-08T02:38:31;9.98;;;8.98;;
11473;SDS011;5793;52.238;13.438;2023-09-08T02:40:59;9.70;;;8.65;;
11473;SDS011;5793;52.238;13.438;2023-09-08T02:43:27;10.65;;;9.57;;
11473;SDS011;5793;52.238;13.438;2023-09-08T02:45:56;11.35;;;9.48;;
11473;SDS011;5793;52.238;13.438;2023-09-08T02:48:24;13.48;;;9.90;;
11473;SDS011;5793;52.238;13.438;2023-09-08T02:50:52;11.00;;;9.73;;
11473;SDS011;5793;52.238;13.438;2023-09-08T02:53:22;12.02;;;9.13;;
11473;SDS011;5793;52.238;13.438;2023-09-08T02:55:54;11.00;;;9.88;;
11473;SDS011;5793;52.238;13.438;2023-09-08T02:58:23;9.88;;;8.88;;
11473;SDS011;5793;52.238;13.438;2023-09-08T03:00:51;9.80;;;8.80;;
11473;SDS011;5793;52.238;13.438;2023-09-08T03:03:19;9.52;;;8.52;;
11473;SDS011;5793;52.238;13.438;2023-09-08T03:05:47;10.68;;;9.57;;
11473;SDS011;5793;52.238;13.438;2023-09-08T03:08:15;13.57;;;10.40;;
11473;SDS011;5793;52.238;13.438;2023-09-08T03:10:44;10.57;;;9.40;;
11473;SDS011;5793;52.238;13.438;2023-09-08T03:13:11;13.15;;;9.68;;
11473;SDS011;5793;52.238;13.438;2023-09-08T03:15:39;9.98;;;9.07;;
11473;SDS011;5793;52.238;13.438;2023-09-08T03:18:07;11.10;;;10.00;;
11473;SDS011;5793;52.238;13.438;2023-09-08T03:20:35;10.55;;;9.30;;
11473;SDS011;5793;52.238;13.438;2023-09-08T03:23:03;11.77;;;9.65;;
11473;SDS011;5793;52.238;13.438;2023-09-08T03:25:31;21.65;;;10.95;;
11473;SDS011;5793;52.238;13.438;2023-09-08T03:28:00;12.93;;;9.45;;
11473;SDS011;5793;52.238;13.438;2023-09-08T03:30:28;11.77;;;9.80;;
11473;SDS011;5793;52.238;13.438;2023-09-08T03:32:55;12.68;;;10.30;;
11473;SDS011;5793;52.238;13.438;2023-09-08T03:35:23;17.60;;;10.95;;
11473;SDS011;5793;52.238;13.438;2023-09-08T03:37:51;13.80;;;10.93;;
11473;SDS011;5793;52.238;13.438;2023-09-08T03:40:19;13.63;;;9.75;;
11473;SDS011;5793;52.238;13.438;2023-09-08T03:42:47;12.20;;;10.30;;
11473;SDS011;5793;52.238;13.438;2023-09-08T03:45:16;14.82;;;10.35;;
11473;SDS011;5793;52.238;13.438;2023-09-08T03:47:44;13.98;;;10.27;;
11473;SDS011;5793;52.238;13.438;2023-09-08T03:50:12;13.90;;;10.48;;
11473;SDS011;5793;52.238;13.438;2023-09-08T03:52:40;13.75;;;11.00;;
11473;SDS011;5793;52.238;13.438;2023-09-08T03:55:08;11.38;;;10.32;;
11473;SDS011;5793;52.238;13.438;2023-09-08T03:57:37;11.48;;;10.25;;
11473;SDS011;5793;52.238;13.438;2023-09-08T04:00:05;10.68;;;9.55;;
11473;SDS011;5793;52.238;13.438;2023-09-08T04:02:37;10.27;;;9.27;;
11473;SDS011;5793;52.238;13.438;2023-09-08T04:05:05;10.48;;;9.48;;
11473;SDS011;5793;52.238;13.438;2023-09-08T04:07:34;10.48;;;9.55;;
11473;SDS011;5793;52.238;13.438;2023-09-08T04:10:02;11.20;;;9.95;;
11473;SDS011;5793;52.238;13.438;2023-09-08T04:12:30;11.70;;;10.10;;
11473;SDS011;5793;52.238;13.438;2023-09-08T04:14:58;14.50;;;11.25;;
11473;SDS011;5793;52.238;13.438;2023-09-08T04:17:26;12.38;;;10.05;;
11473;SDS011;5793;52.238;13.438;2023-09-08T04:19:55;14.88;;;10.88;;
11473;SDS011;5793;52.238;13.438;2023-09-08T04:22:22;11.65;;;10.45;;
11473;SDS011;5793;52.238;13.438;2023-09-08T04:24:50;12.30;;;10.20;;
11473;SDS011;5793;52.238;13.438;2023-09-08T04:27:19;11.70;;;10.50;;
11473;SDS011;5793;52.238;13.438;2023-09-08T04:29:47;11.50;;;10.30;;
11473;SDS011;5793;52.238;13.438;2023-09-08T04:32:15;12.75;;;10.43;;
11473;SDS011;5793;52.238;13.438;2023-09-08T04:34:43;13.50;;;10.35;;
11473;SDS011;5793;52.238;13.438;2023-09-08T04:37:13;11.82;;;10.55;;
11473;SDS011;5793;52.238;13.438;2023-09-08T04:39:41;12.57;;;10.63;;
11473;SDS011;5793;52.238;13.438;2023-09-08T04:42:09;12.25;;;9.80;;
11473;SDS011;5793;52.238;13.438;2023-09-08T04:44:36;10.75;;;9.55;;
11473;SDS011;5793;52.238;13.438;2023-09-08T04:47:04;9.90;;;8.90;;
11473;SDS011;5793;52.238;13.438;2023-09-08T04:49:32;11.30;;;9.80;;
11473;SDS011;5793;52.238;13.438;2023-09-08T04:52:00;12.02;;;10.18;;
11473;SDS011;5793;52.238;13.438;2023-09-08T04:54:29;12.30;;;10.63;;
11473;SDS011;5793;52.238;13.438;2023-09-08T04:56:58;10.55;;;9.52;;
11473;SDS011;5793;52.238;13.438;2023-09-08T04:59:45;11.13;;;10.00;;
11473;SDS011;5793;52.238;13.438;2023-09-08T05:02:13;15.88;;;11.65;;
11473;SDS011;5793;52.238;13.438;2023-09-08T05:04:41;15.15;;;11.18;;
11473;SDS011;5793;52.238;13.438;2023-09-08T05:07:09;13.75;;;11.05;;
11473;SDS011;5793;52.238;13.438;2023-09-08T05:09:40;11.73;;;10.52;;
11473;SDS011;5793;52.238;13.438;2023-09-08T05:12:07;12.85;;;10.15;;
11473;SDS011;5793;52.238;13.438;2023-09-08T05:14:35;12.50;;;10.52;;
11473;SDS011;5793;52.238;13.438;2023-09-08T05:17:03;12.27;;;10.18;;
11473;SDS011;5793;52.238;13.438;2023-09-08T05:19:31;12.30;;;10.85;;
11473;SDS011;5793;52.238;13.438;2023-09-08T05:21:59;11.70;;;10.48;;
11473;SDS011;5793;52.238;13.438;2023-09-08T05:24:27;11.27;;;10.13;;
11473;SDS011;5793;52.238;13.438;2023-09-08T05:26:56;11.98;;;10.50;;
11473;SDS011;5793;52.238;13.438;2023-09-08T05:29:24;12.27;;;10.82;;
11473;SDS011;5793;52.238;13.438;2023-09-08T05:31:52;15.18;;;10.88;;
11473;SDS011;5793;52.238;13.438;2023-09-08T05:34:20;12.52;;;11.23;;
11473;SDS011;5793;52.238;13.438;2023-09-08T05:36:47;13.20;;;11.77;;
11473;SDS011;5793;52.238;13.438;2023-09-08T05:39:15;16.60;;;11.73;;
11473;SDS011;5793;52.238;13.438;2023-09-08T05:41:45;18.30;;;11.90;;
11473;SDS011;5793;52.238;13.438;2023-09-08T05:44:14;14.75;;;11.52;;
11473;SDS011;5793;52.238;13.438;2023-09-08T05:46:42;15.07;;;12.45;;
11473;SDS011;5793;52.238;13.438;2023-09-08T05:49:10;19.25;;;12.50;;
11473;SDS011;5793;52.238;13.438;2023-09-08T05:51:37;13.00;;;11.30;;
11473;SDS011;5793;52.238;13.438;2023-09-08T05:54:05;12.65;;;11.35;;
11473;SDS011;5793;52.238;13.438;2023-09-08T05:56:33;13.75;;;11.98;;
11473;SDS011;5793;52.238;13.438;2023-09-08T05:59:01;14.50;;;11.50;;
11473;SDS011;5793;52.238;13.438;2023-09-08T06:01:30;17.60;;;11.75;;
11473;SDS011;5793;52.238;13.438;2023-09-08T06:04:00;14.30;;;11.63;;
11473;SDS011;5793;52.238;13.438;2023-09-08T06:06:28;22.23;;;12.73;;
11473;SDS011;5793;52.238;13.438;2023-09-08T06:08:55;15.88;;;11.70;;
11473;SDS011;5793;52.238;13.438;2023-09-08T06:11:23;14.43;;;12.05;;
11473;SDS011;5793;52.238;13.438;2023-09-08T06:13:51;14.13;;;11.02;;
11473;SDS011;5793;52.238;13.438;2023-09-08T06:16:25;13.40;;;11.70;;
11473;SDS011;5793;52.238;13.438;2023-09-08T06:18:54;13.25;;;11.25;;
11473;SDS011;5793;52.238;13.438;2023-09-08T06:21:22;13.35;;;11.50;;
11473;SDS011;5793;52.238;13.438;2023-09-08T06:23:49;11.70;;;10.50;;
11473;SDS011;5793;52.238;13.438;2023-09-08T06:26:17;13.50;;;11.07;;
11473;SDS011;5793;52.238;13.438;2023-09-08T06:28:45;12.75;;;10.77;;
11473;SDS011;5793;52.238;13.438;2023-09-08T06:31:13;13.65;;;11.55;;
11473;SDS011;5793;52.238;13.438;2023-09-08T06:33:41;13.75;;;11.77;;
11473;SDS011;5793;52.238;13.438;2023-09-08T06:36:10;12.90;;;11.32;;
11473;SDS011;5793;52.238;13.438;2023-09-08T06:38:38;11.93;;;10.60;;
11473;SDS011;5793;52.238;13.438;2023-09-08T06:41:09;12.98;;;11.30;;
11473;SDS011;5793;52.238;13.438;2023-09-08T06:43:38;12.20;;;11.00;;
11473;SDS011;5793;52.238;13.438;2023-09-08T06:46:06;13.60;;;10.48;;
11473;SDS011;5793;52.238;13.438;2023-09-08T06:48:34;12.20;;;10.43;;
11473;SDS011;5793;52.238;13.438;2023-09-08T06:51:03;12.68;;;10.50;;
11473;SDS011;5793;52.238;13.438;2023-09-08T06:53:32;18.73;;;11.23;;
11473;SDS011;5793;52.238;13.438;2023-09-08T06:56:00;13.48;;;10.50;;
11473;SDS011;5793;52.238;13.438;2023-09-08T06:58:28;11.48;;;10.27;;
11473;SDS011;5793;52.238;13.438;2023-09-08T07:00:56;14.20;;;10.98;;
11473;SDS011;5793;52.238;13.438;2023-09-08T07:03:24;12.80;;;11.00;;
11473;SDS011;5793;52.238;13.438;2023-09-08T07:05:53;12.43;;;10.35;;
11473;SDS011;5793;52.238;13.438;2023-09-08T07:08:20;12.88;;;9.80;;
11473;SDS011;5793;52.238;13.438;2023-09-08T07:10:52;10.95;;;9.85;;
11473;SDS011;5793;52.238;13.438;2023-09-08T07:13:20;11.63;;;9.93;;
11473;SDS011;5793;52.238;13.438;2023-09-08T07:15:49;10.77;;;9.68;;
11473;SDS011;5793;52.238;13.438;2023-09-08T07:18:16;10.23;;;9.23;;
11473;SDS011;5793;52.238;13.438;2023-09-08T07:20:45;17.75;;;9.70;;
11473;SDS011;5793;52.238;13.438;2023-09-08T07:23:14;10.52;;;9.20;;
11473;SDS011;5793;52.238;13.438;2023-09-08T07:25:44;10.27;;;8.35;;
11473;SDS011;5793;52.238;13.438;2023-09-08T07:28:14;9.60;;;8.57;;
11473;SDS011;5793;52.238;13.438;2023-09-08T07:30:42;15.30;;;10.95;;
11473;SDS011;5793;52.238;13.438;2023-09-08T07:33:11;9.38;;;8.40;;
11473;SDS011;5793;52.238;13.438;2023-09-08T07:35:39;9.27;;;8.25;;
11473;SDS011;5793;52.238;13.438;2023-09-08T07:38:07;9.15;;;7.82;;
11473;SDS011;5793;52.238;13.438;2023-09-08T07:40:35;9.52;;;7.53;;
11473;SDS011;5793;52.238;13.438;2023-09-08T07:43:03;10.80;;;7.18;;
11473;SDS011;5793;52.238;13.438;2023-09-08T07:45:32;8.18;;;6.57;;
11473;SDS011;5793;52.238;13.438;2023-09-08T07:48:00;8.95;;;7.28;;
11473;SDS011;5793;52.238;13.438;2023-09-08T07:50:28;9.13;;;6.60;;
11473;SDS011;5793;52.238;13.438;2023-09-08T07:52:57;9.18;;;6.88;;
11473;SDS011;5793;52.238;13.438;2023-09-08T07:55:25;9.27;;;6.38;;
11473;SDS011;5793;52.238;13.438;2023-09-08T07:57:55;9.68;;;6.80;;
11473;SDS011;5793;52.238;13.438;2023-09-08T08:00:23;9.70;;;6.35;;
11473;SDS011;5793;52.238;13.438;2023-09-08T08:02:54;6.43;;;5.75;;
11473;SDS011;5793;52.238;13.438;2023-09-08T08:05:23;13.38;;;6.28;;
11473;SDS011;5793;52.238;13.438;2023-09-08T08:07:51;9.32;;;6.20;;
11473;SDS011;5793;52.238;13.438;2023-09-08T08:10:19;10.15;;;6.28;;
11473;SDS011;5793;52.238;13.438;2023-09-08T08:12:47;11.25;;;5.93;;
11473;SDS011;5793;52.238;13.438;2023-09-08T08:15:15;8.45;;;6.05;;
11473;SDS011;5793;52.238;13.438;2023-09-08T08:17:46;6.70;;;5.95;;
11473;SDS011;5793;52.238;13.438;2023-09-08T08:20:15;7.13;;;5.55;;
11473;SDS011;5793;52.238;13.438;2023-09-08T08:22:44;10.38;;;6.00;;
11473;SDS011;5793;52.238;13.438;2023-09-08T08:25:12;6.47;;;5.50;;
11473;SDS011;5793;52.238;13.438;2023-09-08T08:27:40;7.07;;;5.75;;
11473;SDS011;5793;52.238;13.438;2023-09-08T08:30:09;6.00;;;5.40;;
11473;SDS011;5793;52.238;13.438;2023-09-08T08:32:38;9.20;;;5.53;;
11473;SDS011;5793;52.238;13.438;2023-09-08T08:35:06;8.88;;;5.78;;
11473;SDS011;5793;52.238;13.438;2023-09-08T08:37:35;7.60;;;5.50;;
11473;SDS011;5793;52.238;13.438;2023-09-08T08:40:03;6.65;;;5.22;;
11473;SDS011;5793;52.238;13.438;2023-09-08T08:42:33;9.48;;;5.10;;
11473;SDS011;5793;52.238;13.438;2023-09-08T08:45:01;6.07;;;5.05;;
11473;SDS011;5793;52.238;13.438;2023-09-08T08:47:29;5.80;;;4.53;;
11473;SDS011;5793;52.238;13.438;2023-09-08T08:49:58;6.55;;;4.90;;
11473;SDS011;5793;52.238;13.438;2023-09-08T08:52:26;6.30;;;4.80;;
11473;SDS011;5793;52.238;13.438;2023-09-08T08:54:56;5.43;;;4.55;;
11473;SDS011;5793;52.238;13.438;2023-09-08T08:57:25;5.75;;;4.47;;
11473;SDS011;5793;52.238;13.438;2023-09-08T08:59:54;8.45;;;4.97;;
11473;SDS011;5793;52.238;13.438;2023-09-08T09:02:22;7.07;;;5.00;;
11473;SDS011;5793;52.238;13.438;2023-09-08T09:04:55;5.22;;;4.45;;
11473;SDS011;5793;52.238;13.438;2023-09-08T09:07:25;9.27;;;5.00;;
11473;SDS011;5793;52.238;13.438;2023-09-08T09:09:53;6.28;;;4.35;;
11473;SDS011;5793;52.238;13.438;2023-09-08T09:12:23;6.57;;;4.70;;
11473;SDS011;5793;52.238;13.438;2023-09-08T09:14:52;8.85;;;5.40;;
11473;SDS011;5793;52.238;13.438;2023-09-08T09:17:21;6.03;;;4.80;;
11473;SDS011;5793;52.238;13.438;2023-09-08T09:19:48;5.68;;;4.55;;
11473;SDS011;5793;52.238;13.438;2023-09-08T09:22:19;8.48;;;4.95;;
11473;SDS011;5793;52.238;13.438;2023-09-08T09:24:48;5.45;;;4.95;;
11473;SDS011;5793;52.238;13.438;2023-09-08T09:27:16;7.00;;;4.82;;
11473;SDS011;5793;52.238;13.438;2023-09-08T09:29:46;7.07;;;4.88;;
11473;SDS011;5793;52.238;13.438;2023-09-08T09:32:14;7.05;;;4.88;;
11473;SDS011;5793;52.238;13.438;2023-09-08T09:34:47;5.90;;;4.75;;
11473;SDS011;5793;52.238;13.438;2023-09-08T09:37:16;6.57;;;5.13;;
11473;SDS011;5793;52.238;13.438;2023-09-08T09:39:45;8.52;;;5.32;;
11473;SDS011;5793;52.238;13.438;2023-09-08T09:42:16;7.10;;;5.07;;
11473;SDS011;5793;52.238;13.438;2023-09-08T09:44:45;5.57;;;4.45;;
11473;SDS011;5793;52.238;13.438;2023-09-08T09:47:14;5.07;;;4.57;;
11473;SDS011;5793;52.238;13.438;2023-09-08T09:49:43;5.68;;;4.80;;
11473;SDS011;5793;52.238;13.438;2023-09-08T09:52:13;6.68;;;4.85;;
11473;SDS011;5793;52.238;13.438;2023-09-08T09:54:42;6.03;;;4.90;;
11473;SDS011;5793;52.238;13.438;2023-09-08T09:57:11;5.13;;;4.63;;
11473;SDS011;5793;52.238;13.438;2023-09-08T09:59:41;6.03;;;4.93;;
11473;SDS011;5793;52.238;13.438;2023-09-08T10:02:12;7.15;;;5.20;;
11473;SDS011;5793;52.238;13.438;2023-09-08T10:04:41;5.32;;;4.80;;
11473;SDS011;5793;52.238;13.438;2023-09-08T10:07:09;8.57;;;4.70;;
11473;SDS011;5793;52.238;13.438;2023-09-08T10:09:37;6.95;;;4.93;;
11473;SDS011;5793;52.238;13.438;2023-09-08T10:12:05;9.48;;;4.63;;
11473;SDS011;5793;52.238;13.438;2023-09-08T10:14:36;5.55;;;4.80;;
11473;SDS011;5793;52.238;13.438;2023-09-08T10:17:08;7.35;;;5.20;;
11473;SDS011;5793;52.238;13.438;2023-09-08T10:19:39;6.68;;;4.93;;
11473;SDS011;5793;52.238;13.438;2023-09-08T10:22:12;5.05;;;4.55;;
11473;SDS011;5793;52.238;13.438;2023-09-08T10:24:42;6.90;;;5.25;;
11473;SDS011;5793;52.238;13.438;2023-09-08T10:27:13;5.13;;;4.63;;
11473;SDS011;5793;52.238;13.438;2023-09-08T10:29:45;8.77;;;4.80;;
11473;SDS011;5793;52.238;13.438;2023-09-08T10:32:15;5.78;;;4.50;;
11473;SDS011;5793;52.238;13.438;2023-09-08T10:34:44;5.10;;;4.60;;
11473;SDS011;5793;52.238;13.438;2023-09-08T10:37:19;7.78;;;4.60;;
11473;SDS011;5793;52.238;13.438;2023-09-08T10:39:48;6.85;;;4.75;;
11473;SDS011;5793;52.238;13.438;2023-09-08T10:42:19;5.20;;;4.70;;
11473;SDS011;5793;52.238;13.438;2023-09-08T10:45:00;5.85;;;4.50;;
11473;SDS011;5793;52.238;13.438;2023-09-08T10:47:33;5.18;;;4.68;;
11473;SDS011;5793;52.238;13.438;2023-09-08T10:50:15;5.00;;;4.53;;
11473;SDS011;5793;52.238;13.438;2023-09-08T10:52:43;5.53;;;4.82;;
11473;SDS011;5793;52.238;13.438;2023-09-08T10:55:12;7.55;;;5.10;;
11473;SDS011;5793;52.238;13.438;2023-09-08T10:57:44;6.70;;;4.78;;
11473;SDS011;5793;52.238;13.438;2023-09-08T11:00:12;7.13;;;5.70;;
11473;SDS011;5793;52.238;13.438;2023-09-08T11:02:49;6.60;;;5.03;;
11473;SDS011;5793;52.238;13.438;2023-09-08T11:05:18;6.18;;;5.30;;
11473;SDS011;5793;52.238;13.438;2023-09-08T11:07:47;5.65;;;4.80;;
11473;SDS011;5793;52.238;13.438;2023-09-08T11:10:16;5.40;;;4.28;;
11473;SDS011;5793;52.238;13.438;2023-09-08T11:12:44;9.73;;;4.85;;
11473;SDS011;5793;52.238;13.438;2023-09-08T11:15:12;5.18;;;4.68;;
11473;SDS011;5793;52.238;13.438;2023-09-08T11:17:39;6.90;;;5.25;;
11473;SDS011;5793;52.238;13.438;2023-09-08T11:20:10;6.72;;;4.50;;
11473;SDS011;5793;52.238;13.438;2023-09-08T11:22:39;4.65;;;4.25;;
11473;SDS011;5793;52.238;13.438;2023-09-08T11:25:07;10.93;;;4.65;;
11473;SDS011;5793;52.238;13.438;2023-09-08T11:27:37;6.72;;;4.90;;
11473;SDS011;5793;52.238;13.438;2023-09-08T11:30:06;5.85;;;4.50;;
11473;SDS011;5793;52.238;13.438;2023-09-08T11:32:36;5.30;;;4.50;;
11473;SDS011;5793;52.238;13.438;2023-09-08T11:35:04;5.22;;;4.72;;
11473;SDS011;5793;52.238;13.438;2023-09-08T11:37:35;5.32;;;4.68;;
11473;SDS011;5793;52.238;13.438;2023-09-08T11:40:05;4.63;;;4.20;;
11473;SDS011;5793;52.238;13.438;2023-09-08T11:42:39;5.97;;;4.57;;
11473;SDS011;5793;52.238;13.438;2023-09-08T11:45:11;5.82;;;4.65;;
11473;SDS011;5793;52.238;13.438;2023-09-08T11:47:39;5.40;;;4.78;;
11473;SDS011;5793;52.238;13.438;2023-09-08T11:50:09;6.30;;;4.40;;
11473;SDS011;5793;52.238;13.438;2023-09-08T11:52:44;6.10;;;4.40;;
11473;SDS011;5793;52.238;13.438;2023-09-08T11:55:14;7.55;;;5.10;;
11473;SDS011;5793;52.238;13.438;2023-09-08T11:57:44;5.93;;;4.70;;
11473;SDS011;5793;52.238;13.438;2023-09-08T12:00:14;7.10;;;4.95;;
11473;SDS011;5793;52.238;13.438;2023-09-08T12:02:44;7.97;;;4.47;;
11473;SDS011;5793;52.238;13.438;2023-09-08T12:05:12;5.82;;;4.80;;
11473;SDS011;5793;52.238;13.438;2023-09-08T12:07:41;4.80;;;4.40;;
11473;SDS011;5793;52.238;13.438;2023-09-08T12:10:10;5.30;;;4.80;;
11473;SDS011;5793;52.238;13.438;2023-09-08T12:12:43;7.07;;;4.20;;
11473;SDS011;5793;52.238;13.438;2023-09-08T12:17:59;5.65;;;4.30;;
11473;SDS011;5793;52.238;13.438;2023-09-08T12:20:28;4.82;;;4.20;;
11473;SDS011;5793;52.238;13.438;2023-09-08T12:22:57;6.03;;;4.50;;
11473;SDS011;5793;52.238;13.438;2023-09-08T12:25:27;5.18;;;4.35;;
11473;SDS011;5793;52.238;13.438;2023-09-08T12:27:57;4.88;;;4.47;;
11473;SDS011;5793;52.238;13.438;2023-09-08T12:30:26;4.90;;;4.40;;
11473;SDS011;5793;52.238;13.438;2023-09-08T12:32:59;5.15;;;4.18;;
11473;SDS011;5793;52.238;13.438;2023-09-08T12:35:28;4.90;;;4.20;;
11473;SDS011;5793;52.238;13.438;2023-09-08T12:37:58;5.95;;;4.25;;
11473;SDS011;5793;52.238;13.438;2023-09-08T12:40:28;4.57;;;4.15;;
11473;SDS011;5793;52.238;13.438;2023-09-08T12:42:57;6.40;;;4.38;;
11473;SDS011;5793;52.238;13.438;2023-09-08T12:45:33;4.68;;;4.10;;
11473;SDS011;5793;52.238;13.438;2023-09-08T12:48:01;4.90;;;4.40;;
11473;SDS011;5793;52.238;13.438;2023-09-08T12:50:30;5.97;;;4.40;;
11473;SDS011;5793;52.238;13.438;2023-09-08T12:52:58;4.38;;;3.97;;
11473;SDS011;5793;52.238;13.438;2023-09-08T12:55:25;7.97;;;4.80;;
11473;SDS011;5793;52.238;13.438;2023-09-08T12:57:55;5.18;;;4.50;;
11473;SDS011;5793;52.238;13.438;2023-09-08T13:00:23;6.13;;;4.57;;
11473;SDS011;5793;52.238;13.438;2023-09-08T13:02:52;8.63;;;4.95;;
11473;SDS011;5793;52.238;13.438;2023-09-08T13:05:19;6.65;;;4.75;;
11473;SDS011;5793;52.238;13.438;2023-09-08T13:07:47;4.82;;;4.30;;
11473;SDS011;5793;52.238;13.438;2023-09-08T13:10:15;6.95;;;4.30;;
11473;SDS011;5793;52.238;13.438;2023-09-08T13:12:43;4.53;;;4.13;;
11473;SDS011;5793;52.238;13.438;2023-09-08T13:15:13;4.45;;;4.05;;
11473;SDS011;5793;52.238;13.438;2023-09-08T13:17:41;5.57;;;4.57;;
11473;SDS011;5793;52.238;13.438;2023-09-08T13:20:10;7.20;;;4.47;;
11473;SDS011;5793;52.238;13.438;2023-09-08T13:22:38;6.53;;;4.30;;
11473;SDS011;5793;52.238;13.438;2023-09-08T13:25:07;6.90;;;4.43;;
11473;SDS011;5793;52.238;13.438;2023-09-08T13:27:35;5.53;;;4.18;;
11473;SDS011;5793;52.238;13.438;2023-09-08T13:30:09;5.30;;;4.32;;
11473;SDS011;5793;52.238;13.438;2023-09-08T13:32:39;6.57;;;4.70;;
11473;SDS011;5793;52.238;13.438;2023-09-08T13:35:07;6.03;;;4.47;;
11473;SDS011;5793;52.238;13.438;2023-09-08T13:37:35;6.18;;;4.70;;
11473;SDS011;5793;52.238;13.438;2023-09-08T13:40:04;8.63;;;4.78;;
11473;SDS011;5793;52.238;13.438;2023-09-08T13:42:35;4.90;;;4.38;;
11473;SDS011;5793;52.238;13.438;2023-09-08T13:45:03;7.20;;;4.80;;
11473;SDS011;5793;52.238;13.438;2023-09-08T13:47:32;6.03;;;4.57;;
11473;SDS011;5793;52.238;13.438;2023-09-08T13:50:05;7.03;;;4.70;;
11473;SDS011;5793;52.238;13.438;2023-09-08T13:52:36;5.25;;;4.53;;
11473;SDS011;5793;52.238;13.438;2023-09-08T13:55:09;5.43;;;4.35;;
11473;SDS011;5793;52.238;13.438;2023-09-08T13:57:57;9.38;;;5.00;;
11473;SDS011;5793;52.238;13.438;2023-09-08T14:00:27;7.78;;;4.40;;
11473;SDS011;5793;52.238;13.438;2023-09-08T14:02:57;6.00;;;4.25;;
11473;SDS011;5793;52.238;13.438;2023-09-08T14:05:32;5.93;;;4.63;;
11473;SDS011;5793;52.238;13.438;2023-09-08T14:08:03;5.57;;;4.95;;
11473;SDS011;5793;52.238;13.438;2023-09-08T14:10:43;6.57;;;3.97;;
11473;SDS011;5793;52.238;13.438;2023-09-08T14:13:14;5.20;;;4.70;;
11473;SDS011;5793;52.238;13.438;2023-09-08T14:15:42;7.25;;;4.55;;
11473;SDS011;5793;52.238;13.438;2023-09-08T14:18:10;5.13;;;4.40;;
11473;SDS011;5793;52.238;13.438;2023-09-08T14:20:39;8.68;;;4.50;;
11473;SDS011;5793;52.238;13.438;2023-09-08T14:23:07;5.30;;;4.57;;
11473;SDS011;5793;52.238;13.438;2023-09-08T14:25:35;5.03;;;4.53;;
11473;SDS011;5793;52.238;13.438;2023-09-08T14:28:03;6.57;;;5.57;;
11473;SDS011;5793;52.238;13.438;2023-09-08T14:30:33;4.90;;;4.38;;
11473;SDS011;5793;52.238;13.438;2023-09-08T14:33:01;4.97;;;4.20;;
11473;SDS011;5793;52.238;13.438;2023-09-08T14:35:29;5.65;;;4.00;;
11473;SDS011;5793;52.238;13.438;2023-09-08T14:37:59;5.45;;;4.53;;
11473;SDS011;5793;52.238;13.438;2023-09-08T14:40:26;5.00;;;4.50;;
11473;SDS011;5793;52.238;13.438;2023-09-08T14:42:54;7.22;;;4.22;;
11473;SDS011;5793;52.238;13.438;2023-09-08T14:45:22;7.35;;;4.22;;
11473;SDS011;5793;52.238;13.438;2023-09-08T14:47:50;5.25;;;4.20;;
11473;SDS011;5793;52.238;13.438;2023-09-08T14:50:18;6.10;;;4.55;;
11473;SDS011;5793;52.238;13.438;2023-09-08T14:52:46;5.22;;;4.50;;